sensor_id;sensor_type;location;lat;lon;timestamp;P1;durP1;ratioP1;P2;durP2;ratioP2
830;SDS011;397;50.564;7.272;2022-08-21T00:01:18;6.87;;;5.63;;
830;SDS011;397;50.564;7.272;2022-08-21T00:03:47;7.17;;;5.70;;
830;SDS011;397;50.564;7.272;2022-08-21T00:06:15;7.67;;;5.90;;
830;SDS011;397;50.564;7.272;2022-08-21T00:08:43;10.70;;;6.47;;
830;SDS011;397;50.564;7.272;2022-08-21T00:11:11;8.50;;;6.60;;
830;SDS011;397;50.564;7.272;2022-08-21T00:13:39;8.83;;;6.40;;
830;SDS011;397;50.564;7.272;2022-08-21T00:16:07;9.63;;;6.20;;
830;SDS011;397;50.564;7.272;2022-08-21T00:18:35;11.43;;;6.40;;
830;SDS011;397;50.564;7.272;2022-08-21T00:21:03;9.23;;;6.50;;
830;SDS011;397;50.564;7.272;2022-08-21T00:23:32;7.70;;;5.70;;
830;SDS011;397;50.564;7.272;2022-08-21T00:26:01;8.53;;;5.93;;
830;SDS011;397;50.564;7.272;2022-08-21T00:28:28;7.00;;;5.37;;
830;SDS011;397;50.564;7.272;2022-08-21T00:30:56;6.13;;;5.53;;
830;SDS011;397;50.564;7.272;2022-08-21T00:33:25;12.53;;;5.70;;
830;SDS011;397;50.564;7.272;2022-08-21T00:35:52;6.30;;;5.57;;
830;SDS011;397;50.564;7.272;2022-08-21T00:38:20;8.83;;;5.67;;
830;SDS011;397;50.564;7.272;2022-08-21T00:40:50;6.00;;;5.23;;
830;SDS011;397;50.564;7.272;2022-08-21T00:43:23;8.77;;;6.13;;
830;SDS011;397;50.564;7.272;2022-08-21T00:45:53;7.00;;;5.50;;
830;SDS011;397;50.564;7.272;2022-08-21T00:48:21;11.03;;;6.53;;
830;SDS011;397;50.564;7.272;2022-08-21T00:50:56;8.00;;;6.27;;
830;SDS011;397;50.564;7.272;2022-08-21T00:53:26;6.80;;;5.47;;
830;SDS011;397;50.564;7.272;2022-08-21T00:55:54;7.27;;;6.00;;
830;SDS011;397;50.564;7.272;2022-08-21T00:58:23;9.67;;;6.00;;
830;SDS011;397;50.564;7.272;2022-08-21T01:00:53;7.13;;;5.83;;
830;SDS011;397;50.564;7.272;2022-08-21T01:03:22;7.23;;;6.17;;
830;SDS011;397;50.564;7.272;2022-08-21T01:05:51;7.17;;;6.27;;
830;SDS011;397;50.564;7.272;2022-08-21T01:08:19;7.93;;;6.73;;
830;SDS011;397;50.564;7.272;2022-08-21T01:10:47;6.20;;;5.60;;
830;SDS011;397;50.564;7.272;2022-08-21T01:13:16;13.17;;;8.40;;
830;SDS011;397;50.564;7.272;2022-08-21T01:15:46;10.07;;;6.80;;
830;SDS011;397;50.564;7.272;2022-08-21T01:18:17;7.43;;;5.57;;
830;SDS011;397;50.564;7.272;2022-08-21T01:20:58;10.10;;;6.33;;
830;SDS011;397;50.564;7.272;2022-08-21T01:23:28;9.87;;;6.63;;
830;SDS011;397;50.564;7.272;2022-08-21T01:25:56;7.77;;;6.30;;
830;SDS011;397;50.564;7.272;2022-08-21T01:28:24;10.40;;;6.10;;
830;SDS011;397;50.564;7.272;2022-08-21T01:30:53;8.70;;;6.23;;
830;SDS011;397;50.564;7.272;2022-08-21T01:33:22;7.93;;;6.70;;
830;SDS011;397;50.564;7.272;2022-08-21T01:35:51;10.43;;;6.70;;
830;SDS011;397;50.564;7.272;2022-08-21T01:38:19;7.17;;;6.50;;
830;SDS011;397;50.564;7.272;2022-08-21T01:40:46;7.27;;;6.00;;
830;SDS011;397;50.564;7.272;2022-08-21T01:43:14;8.07;;;6.30;;
830;SDS011;397;50.564;7.272;2022-08-21T01:45:41;6.70;;;5.47;;
830;SDS011;397;50.564;7.272;2022-08-21T01:48:09;8.17;;;5.27;;
830;SDS011;397;50.564;7.272;2022-08-21T01:50:37;7.57;;;6.60;;
830;SDS011;397;50.564;7.272;2022-08-21T01:53:05;12.10;;;6.90;;
830;SDS011;397;50.564;7.272;2022-08-21T01:55:32;9.27;;;6.27;;
830;SDS011;397;50.564;7.272;2022-08-21T01:58:00;12.50;;;6.10;;
830;SDS011;397;50.564;7.272;2022-08-21T02:00:27;7.33;;;5.97;;
830;SDS011;397;50.564;7.272;2022-08-21T02:02:55;12.63;;;6.90;;
830;SDS011;397;50.564;7.272;2022-08-21T02:05:22;11.33;;;6.50;;
830;SDS011;397;50.564;7.272;2022-08-21T02:07:50;11.50;;;6.40;;
830;SDS011;397;50.564;7.272;2022-08-21T02:10:21;11.10;;;7.23;;
830;SDS011;397;50.564;7.272;2022-08-21T02:12:52;9.93;;;6.27;;
830;SDS011;397;50.564;7.272;2022-08-21T02:15:20;8.33;;;6.73;;
830;SDS011;397;50.564;7.272;2022-08-21T02:17:50;8.43;;;7.30;;
830;SDS011;397;50.564;7.272;2022-08-21T02:20:21;7.63;;;6.40;;
830;SDS011;397;50.564;7.272;2022-08-21T02:22:50;8.77;;;6.60;;
830;SDS011;397;50.564;7.272;2022-08-21T02:25:18;8.00;;;6.57;;
830;SDS011;397;50.564;7.272;2022-08-21T02:27:47;9.70;;;6.50;;
830;SDS011;397;50.564;7.272;2022-08-21T02:30:30;8.80;;;6.07;;
830;SDS011;397;50.564;7.272;2022-08-21T02:32:55;10.10;;;6.77;;
830;SDS011;397;50.564;7.272;2022-08-21T02:35:25;7.97;;;6.20;;
830;SDS011;397;50.564;7.272;2022-08-21T02:37:54;9.73;;;6.97;;
830;SDS011;397;50.564;7.272;2022-08-21T02:40:25;7.67;;;6.50;;
830;SDS011;397;50.564;7.272;2022-08-21T02:42:54;9.43;;;6.13;;
830;SDS011;397;50.564;7.272;2022-08-21T02:45:22;6.97;;;6.23;;
830;SDS011;397;50.564;7.272;2022-08-21T02:47:50;9.27;;;7.03;;
830;SDS011;397;50.564;7.272;2022-08-21T02:50:20;7.60;;;6.33;;
830;SDS011;397;50.564;7.272;2022-08-21T02:52:50;7.03;;;6.30;;
830;SDS011;397;50.564;7.272;2022-08-21T02:55:18;8.47;;;6.00;;
830;SDS011;397;50.564;7.272;2022-08-21T02:57:47;9.43;;;7.40;;
830;SDS011;397;50.564;7.272;2022-08-21T03:00:15;10.50;;;6.90;;
830;SDS011;397;50.564;7.272;2022-08-21T03:02:43;8.57;;;7.43;;
830;SDS011;397;50.564;7.272;2022-08-21T03:05:13;7.77;;;6.80;;
830;SDS011;397;50.564;7.272;2022-08-21T03:07:42;11.47;;;5.87;;
830;SDS011;397;50.564;7.272;2022-08-21T03:10:12;8.23;;;6.60;;
830;SDS011;397;50.564;7.272;2022-08-21T03:12:40;7.53;;;6.73;;
830;SDS011;397;50.564;7.272;2022-08-21T03:15:10;8.57;;;6.63;;
830;SDS011;397;50.564;7.272;2022-08-21T03:17:39;9.87;;;6.10;;
830;SDS011;397;50.564;7.272;2022-08-21T03:20:07;7.40;;;6.63;;
830;SDS011;397;50.564;7.272;2022-08-21T03:22:36;10.93;;;6.63;;
830;SDS011;397;50.564;7.272;2022-08-21T03:25:04;9.90;;;6.70;;
830;SDS011;397;50.564;7.272;2022-08-21T03:27:33;6.67;;;5.77;;
830;SDS011;397;50.564;7.272;2022-08-21T03:30:02;7.23;;;6.50;;
830;SDS011;397;50.564;7.272;2022-08-21T03:32:32;7.87;;;6.47;;
830;SDS011;397;50.564;7.272;2022-08-21T03:35:02;6.93;;;6.23;;
830;SDS011;397;50.564;7.272;2022-08-21T03:37:31;7.43;;;6.60;;
830;SDS011;397;50.564;7.272;2022-08-21T03:39:58;8.63;;;6.70;;
830;SDS011;397;50.564;7.272;2022-08-21T03:42:26;8.87;;;6.30;;
830;SDS011;397;50.564;7.272;2022-08-21T03:44:53;11.23;;;6.67;;
830;SDS011;397;50.564;7.272;2022-08-21T03:47:21;8.83;;;6.73;;
830;SDS011;397;50.564;7.272;2022-08-21T03:49:48;10.80;;;6.93;;
830;SDS011;397;50.564;7.272;2022-08-21T03:52:16;7.73;;;6.20;;
830;SDS011;397;50.564;7.272;2022-08-21T03:54:44;10.33;;;7.70;;
830;SDS011;397;50.564;7.272;2022-08-21T03:57:12;10.23;;;7.50;;
830;SDS011;397;50.564;7.272;2022-08-21T03:59:40;7.80;;;6.80;;
830;SDS011;397;50.564;7.272;2022-08-21T04:02:09;7.73;;;6.20;;
830;SDS011;397;50.564;7.272;2022-08-21T04:04:36;6.90;;;6.27;;
830;SDS011;397;50.564;7.272;2022-08-21T04:07:04;10.40;;;6.67;;
830;SDS011;397;50.564;7.272;2022-08-21T04:09:31;7.80;;;6.30;;
830;SDS011;397;50.564;7.272;2022-08-21T04:11:59;9.20;;;5.90;;
830;SDS011;397;50.564;7.272;2022-08-21T04:14:27;8.53;;;7.10;;
830;SDS011;397;50.564;7.272;2022-08-21T04:16:55;9.60;;;6.90;;
830;SDS011;397;50.564;7.272;2022-08-21T04:19:23;8.93;;;6.83;;
830;SDS011;397;50.564;7.272;2022-08-21T04:21:50;9.30;;;6.87;;
830;SDS011;397;50.564;7.272;2022-08-21T04:24:18;10.53;;;7.60;;
830;SDS011;397;50.564;7.272;2022-08-21T04:26:46;11.27;;;7.43;;
830;SDS011;397;50.564;7.272;2022-08-21T04:29:13;8.30;;;6.97;;
830;SDS011;397;50.564;7.272;2022-08-21T04:31:40;7.73;;;6.83;;
830;SDS011;397;50.564;7.272;2022-08-21T04:34:09;10.53;;;7.20;;
830;SDS011;397;50.564;7.272;2022-08-21T04:36:36;7.00;;;6.33;;
830;SDS011;397;50.564;7.272;2022-08-21T04:39:04;8.27;;;6.80;;
830;SDS011;397;50.564;7.272;2022-08-21T04:41:31;8.37;;;7.00;;
830;SDS011;397;50.564;7.272;2022-08-21T04:43:59;7.30;;;6.23;;
830;SDS011;397;50.564;7.272;2022-08-21T04:46:26;6.87;;;6.23;;
830;SDS011;397;50.564;7.272;2022-08-21T04:48:54;6.93;;;6.27;;
830;SDS011;397;50.564;7.272;2022-08-21T04:51:23;9.93;;;6.87;;
830;SDS011;397;50.564;7.272;2022-08-21T04:53:57;6.80;;;6.20;;
830;SDS011;397;50.564;7.272;2022-08-21T04:56:32;11.63;;;6.30;;
830;SDS011;397;50.564;7.272;2022-08-21T04:59:03;8.33;;;6.70;;
830;SDS011;397;50.564;7.272;2022-08-21T05:01:34;8.27;;;6.63;;
830;SDS011;397;50.564;7.272;2022-08-21T05:04:04;10.10;;;6.53;;
830;SDS011;397;50.564;7.272;2022-08-21T05:06:34;7.10;;;6.40;;
830;SDS011;397;50.564;7.272;2022-08-21T05:09:04;7.63;;;6.17;;
830;SDS011;397;50.564;7.272;2022-08-21T05:11:32;9.07;;;6.67;;
830;SDS011;397;50.564;7.272;2022-08-21T05:14:00;9.40;;;6.30;;
830;SDS011;397;50.564;7.272;2022-08-21T05:16:28;6.87;;;6.03;;
830;SDS011;397;50.564;7.272;2022-08-21T05:18:55;7.60;;;6.87;;
830;SDS011;397;50.564;7.272;2022-08-21T05:21:24;7.63;;;6.30;;
830;SDS011;397;50.564;7.272;2022-08-21T05:23:51;6.70;;;6.13;;
830;SDS011;397;50.564;7.272;2022-08-21T05:26:19;6.60;;;5.70;;
830;SDS011;397;50.564;7.272;2022-08-21T05:28:46;8.97;;;7.03;;
830;SDS011;397;50.564;7.272;2022-08-21T05:31:14;9.50;;;7.20;;
830;SDS011;397;50.564;7.272;2022-08-21T05:33:41;8.07;;;6.03;;
830;SDS011;397;50.564;7.272;2022-08-21T05:36:09;8.57;;;6.70;;
830;SDS011;397;50.564;7.272;2022-08-21T05:38:36;8.00;;;5.87;;
830;SDS011;397;50.564;7.272;2022-08-21T05:41:04;10.43;;;7.50;;
830;SDS011;397;50.564;7.272;2022-08-21T05:43:33;11.70;;;6.13;;
830;SDS011;397;50.564;7.272;2022-08-21T05:46:05;7.20;;;6.50;;
830;SDS011;397;50.564;7.272;2022-08-21T05:48:34;8.40;;;6.47;;
830;SDS011;397;50.564;7.272;2022-08-21T05:51:06;6.83;;;6.13;;
830;SDS011;397;50.564;7.272;2022-08-21T05:53:35;7.10;;;6.27;;
830;SDS011;397;50.564;7.272;2022-08-21T05:56:06;7.20;;;6.30;;
830;SDS011;397;50.564;7.272;2022-08-21T05:58:52;8.07;;;6.53;;
830;SDS011;397;50.564;7.272;2022-08-21T06:01:20;7.80;;;6.87;;
830;SDS011;397;50.564;7.272;2022-08-21T06:03:48;10.33;;;6.70;;
830;SDS011;397;50.564;7.272;2022-08-21T06:06:15;8.23;;;6.67;;
830;SDS011;397;50.564;7.272;2022-08-21T06:08:43;7.67;;;6.83;;
830;SDS011;397;50.564;7.272;2022-08-21T06:11:11;8.20;;;7.40;;
830;SDS011;397;50.564;7.272;2022-08-21T06:13:38;10.50;;;7.50;;
830;SDS011;397;50.564;7.272;2022-08-21T06:16:13;8.60;;;6.77;;
830;SDS011;397;50.564;7.272;2022-08-21T06:18:42;12.23;;;7.80;;
830;SDS011;397;50.564;7.272;2022-08-21T06:21:11;10.37;;;8.07;;
830;SDS011;397;50.564;7.272;2022-08-21T06:23:40;10.83;;;7.53;;
830;SDS011;397;50.564;7.272;2022-08-21T06:26:09;11.70;;;7.97;;
830;SDS011;397;50.564;7.272;2022-08-21T06:28:38;11.10;;;8.53;;
830;SDS011;397;50.564;7.272;2022-08-21T06:31:17;9.20;;;7.60;;
830;SDS011;397;50.564;7.272;2022-08-21T06:33:46;10.40;;;7.27;;
830;SDS011;397;50.564;7.272;2022-08-21T06:36:14;7.93;;;7.13;;
830;SDS011;397;50.564;7.272;2022-08-21T06:38:42;8.03;;;7.23;;
830;SDS011;397;50.564;7.272;2022-08-21T06:41:10;12.10;;;7.27;;
830;SDS011;397;50.564;7.272;2022-08-21T06:43:38;7.50;;;6.73;;
830;SDS011;397;50.564;7.272;2022-08-21T06:46:06;9.97;;;7.70;;
830;SDS011;397;50.564;7.272;2022-08-21T06:48:34;8.83;;;7.30;;
830;SDS011;397;50.564;7.272;2022-08-21T06:51:02;8.77;;;6.90;;
830;SDS011;397;50.564;7.272;2022-08-21T06:53:30;11.27;;;7.10;;
830;SDS011;397;50.564;7.272;2022-08-21T06:55:58;9.40;;;6.87;;
830;SDS011;397;50.564;7.272;2022-08-21T06:58:26;9.10;;;7.90;;
830;SDS011;397;50.564;7.272;2022-08-21T07:00:54;9.13;;;7.77;;
830;SDS011;397;50.564;7.272;2022-08-21T07:03:34;11.60;;;8.17;;
830;SDS011;397;50.564;7.272;2022-08-21T07:05:58;8.40;;;7.60;;
830;SDS011;397;50.564;7.272;2022-08-21T07:08:27;11.53;;;7.60;;
830;SDS011;397;50.564;7.272;2022-08-21T07:10:56;12.33;;;7.60;;
830;SDS011;397;50.564;7.272;2022-08-21T07:13:25;9.00;;;7.60;;
830;SDS011;397;50.564;7.272;2022-08-21T07:15:53;9.20;;;8.30;;
830;SDS011;397;50.564;7.272;2022-08-21T07:18:21;11.63;;;7.80;;
830;SDS011;397;50.564;7.272;2022-08-21T07:20:48;8.93;;;7.67;;
830;SDS011;397;50.564;7.272;2022-08-21T07:23:23;10.50;;;8.33;;
830;SDS011;397;50.564;7.272;2022-08-21T07:25:55;9.77;;;8.10;;
830;SDS011;397;50.564;7.272;2022-08-21T07:28:24;9.53;;;8.07;;
830;SDS011;397;50.564;7.272;2022-08-21T07:30:53;8.37;;;7.67;;
830;SDS011;397;50.564;7.272;2022-08-21T07:33:24;9.87;;;8.47;;
830;SDS011;397;50.564;7.272;2022-08-21T07:35:52;11.07;;;9.40;;
830;SDS011;397;50.564;7.272;2022-08-21T07:38:20;13.23;;;8.53;;
830;SDS011;397;50.564;7.272;2022-08-21T07:40:49;9.20;;;8.30;;
830;SDS011;397;50.564;7.272;2022-08-21T07:43:19;9.50;;;8.20;;
830;SDS011;397;50.564;7.272;2022-08-21T07:45:47;11.00;;;8.83;;
830;SDS011;397;50.564;7.272;2022-08-21T07:48:16;9.27;;;8.00;;
830;SDS011;397;50.564;7.272;2022-08-21T07:50:43;11.83;;;8.90;;
830;SDS011;397;50.564;7.272;2022-08-21T07:53:11;11.83;;;9.23;;
830;SDS011;397;50.564;7.272;2022-08-21T07:55:38;10.50;;;8.60;;
830;SDS011;397;50.564;7.272;2022-08-21T07:58:06;12.73;;;8.90;;
830;SDS011;397;50.564;7.272;2022-08-21T08:00:33;12.63;;;8.97;;
830;SDS011;397;50.564;7.272;2022-08-21T08:03:01;9.73;;;8.73;;
830;SDS011;397;50.564;7.272;2022-08-21T08:05:29;10.27;;;7.70;;
830;SDS011;397;50.564;7.272;2022-08-21T08:07:58;11.67;;;8.70;;
830;SDS011;397;50.564;7.272;2022-08-21T08:10:25;10.40;;;9.50;;
830;SDS011;397;50.564;7.272;2022-08-21T08:12:53;14.30;;;10.37;;
830;SDS011;397;50.564;7.272;2022-08-21T08:15:22;12.00;;;9.00;;
830;SDS011;397;50.564;7.272;2022-08-21T08:17:51;15.43;;;10.90;;
830;SDS011;397;50.564;7.272;2022-08-21T08:20:20;11.63;;;10.13;;
830;SDS011;397;50.564;7.272;2022-08-21T08:22:48;11.07;;;9.80;;
830;SDS011;397;50.564;7.272;2022-08-21T08:25:18;15.60;;;10.70;;
830;SDS011;397;50.564;7.272;2022-08-21T08:27:46;13.30;;;11.30;;
830;SDS011;397;50.564;7.272;2022-08-21T08:30:15;10.33;;;9.30;;
830;SDS011;397;50.564;7.272;2022-08-21T08:32:44;16.43;;;10.53;;
830;SDS011;397;50.564;7.272;2022-08-21T08:35:12;14.00;;;12.47;;
830;SDS011;397;50.564;7.272;2022-08-21T08:37:40;15.90;;;12.63;;
830;SDS011;397;50.564;7.272;2022-08-21T08:40:11;13.07;;;11.70;;
830;SDS011;397;50.564;7.272;2022-08-21T08:42:41;15.30;;;11.30;;
830;SDS011;397;50.564;7.272;2022-08-21T08:45:15;13.43;;;10.83;;
830;SDS011;397;50.564;7.272;2022-08-21T08:47:43;12.40;;;8.70;;
830;SDS011;397;50.564;7.272;2022-08-21T08:50:17;17.90;;;10.33;;
830;SDS011;397;50.564;7.272;2022-08-21T08:52:48;14.43;;;8.83;;
830;SDS011;397;50.564;7.272;2022-08-21T08:55:19;11.73;;;7.70;;
830;SDS011;397;50.564;7.272;2022-08-21T08:57:54;12.50;;;7.73;;
830;SDS011;397;50.564;7.272;2022-08-21T09:00:23;13.00;;;6.73;;
830;SDS011;397;50.564;7.272;2022-08-21T09:02:52;9.70;;;5.20;;
830;SDS011;397;50.564;7.272;2022-08-21T09:05:23;8.67;;;6.47;;
830;SDS011;397;50.564;7.272;2022-08-21T09:11:17;11.80;;;5.70;;
830;SDS011;397;50.564;7.272;2022-08-21T09:16:50;7.90;;;3.00;;
830;SDS011;397;50.564;7.272;2022-08-21T09:22:07;7.77;;;3.23;;
830;SDS011;397;50.564;7.272;2022-08-21T09:24:48;8.30;;;3.63;;
830;SDS011;397;50.564;7.272;2022-08-21T09:27:24;8.10;;;3.40;;
830;SDS011;397;50.564;7.272;2022-08-21T09:29:53;6.70;;;3.60;;
830;SDS011;397;50.564;7.272;2022-08-21T09:32:26;8.97;;;3.47;;
830;SDS011;397;50.564;7.272;2022-08-21T09:37:55;9.60;;;3.90;;
830;SDS011;397;50.564;7.272;2022-08-21T09:45:48;6.30;;;3.63;;
830;SDS011;397;50.564;7.272;2022-08-21T09:48:24;8.50;;;3.50;;
830;SDS011;397;50.564;7.272;2022-08-21T09:50:52;10.17;;;4.07;;
830;SDS011;397;50.564;7.272;2022-08-21T09:53:25;7.17;;;3.40;;
830;SDS011;397;50.564;7.272;2022-08-21T09:58:44;13.63;;;4.40;;
830;SDS011;397;50.564;7.272;2022-08-21T10:04:03;8.27;;;3.80;;
830;SDS011;397;50.564;7.272;2022-08-21T10:06:33;8.33;;;3.50;;
830;SDS011;397;50.564;7.272;2022-08-21T10:09:05;6.87;;;3.90;;
830;SDS011;397;50.564;7.272;2022-08-21T10:11:38;7.77;;;3.33;;
830;SDS011;397;50.564;7.272;2022-08-21T10:14:12;4.33;;;2.77;;
830;SDS011;397;50.564;7.272;2022-08-21T10:21:54;7.23;;;3.13;;
830;SDS011;397;50.564;7.272;2022-08-21T10:24:44;5.70;;;3.47;;
830;SDS011;397;50.564;7.272;2022-08-21T10:27:02;7.33;;;2.70;;
830;SDS011;397;50.564;7.272;2022-08-21T10:32:35;5.70;;;3.73;;
830;SDS011;397;50.564;7.272;2022-08-21T10:43:42;8.67;;;3.30;;
830;SDS011;397;50.564;7.272;2022-08-21T10:46:38;7.63;;;3.70;;
830;SDS011;397;50.564;7.272;2022-08-21T10:55:04;10.77;;;3.53;;
830;SDS011;397;50.564;7.272;2022-08-21T10:57:40;6.70;;;3.73;;
830;SDS011;397;50.564;7.272;2022-08-21T11:00:23;4.50;;;2.73;;
830;SDS011;397;50.564;7.272;2022-08-21T11:08:24;5.77;;;2.80;;
830;SDS011;397;50.564;7.272;2022-08-21T11:11:17;8.20;;;3.70;;
830;SDS011;397;50.564;7.272;2022-08-21T11:13:49;6.53;;;2.87;;
830;SDS011;397;50.564;7.272;2022-08-21T11:19:02;4.60;;;2.70;;
830;SDS011;397;50.564;7.272;2022-08-21T11:21:42;8.00;;;3.50;;
830;SDS011;397;50.564;7.272;2022-08-21T11:24:27;7.67;;;3.27;;
830;SDS011;397;50.564;7.272;2022-08-21T11:27:05;5.77;;;3.10;;
830;SDS011;397;50.564;7.272;2022-08-21T11:29:38;7.10;;;3.07;;
830;SDS011;397;50.564;7.272;2022-08-21T11:35:04;9.53;;;3.23;;
830;SDS011;397;50.564;7.272;2022-08-21T11:37:42;8.30;;;2.97;;
830;SDS011;397;50.564;7.272;2022-08-21T11:40:34;6.17;;;3.10;;
830;SDS011;397;50.564;7.272;2022-08-21T11:45:55;6.97;;;3.77;;
830;SDS011;397;50.564;7.272;2022-08-21T11:48:29;5.97;;;2.43;;
830;SDS011;397;50.564;7.272;2022-08-21T11:50:57;5.43;;;2.67;;
830;SDS011;397;50.564;7.272;2022-08-21T11:53:28;7.03;;;2.87;;
830;SDS011;397;50.564;7.272;2022-08-21T11:56:35;6.47;;;2.63;;
830;SDS011;397;50.564;7.272;2022-08-21T11:58:43;6.80;;;3.13;;
830;SDS011;397;50.564;7.272;2022-08-21T12:01:16;5.17;;;2.90;;
830;SDS011;397;50.564;7.272;2022-08-21T12:03:56;7.20;;;4.20;;
830;SDS011;397;50.564;7.272;2022-08-21T12:06:30;6.23;;;3.33;;
830;SDS011;397;50.564;7.272;2022-08-21T12:09:01;5.53;;;2.87;;
830;SDS011;397;50.564;7.272;2022-08-21T12:11:30;6.23;;;2.90;;
830;SDS011;397;50.564;7.272;2022-08-21T12:13:59;5.50;;;2.97;;
830;SDS011;397;50.564;7.272;2022-08-21T12:16:35;7.17;;;3.70;;
830;SDS011;397;50.564;7.272;2022-08-21T12:19:09;4.20;;;2.80;;
830;SDS011;397;50.564;7.272;2022-08-21T12:27:20;6.20;;;2.67;;
830;SDS011;397;50.564;7.272;2022-08-21T12:29:56;6.00;;;2.83;;
830;SDS011;397;50.564;7.272;2022-08-21T12:32:27;6.03;;;3.57;;
830;SDS011;397;50.564;7.272;2022-08-21T12:35:06;6.27;;;3.13;;
830;SDS011;397;50.564;7.272;2022-08-21T12:37:39;5.83;;;2.80;;
830;SDS011;397;50.564;7.272;2022-08-21T12:40:31;6.50;;;2.80;;
830;SDS011;397;50.564;7.272;2022-08-21T12:43:19;4.47;;;2.67;;
830;SDS011;397;50.564;7.272;2022-08-21T12:45:48;5.03;;;2.80;;
830;SDS011;397;50.564;7.272;2022-08-21T12:48:21;6.90;;;3.50;;
830;SDS011;397;50.564;7.272;2022-08-21T12:50:54;4.70;;;2.33;;
830;SDS011;397;50.564;7.272;2022-08-21T12:53:38;6.93;;;2.90;;
830;SDS011;397;50.564;7.272;2022-08-21T12:56:25;4.67;;;3.03;;
830;SDS011;397;50.564;7.272;2022-08-21T12:58:56;8.57;;;3.20;;
830;SDS011;397;50.564;7.272;2022-08-21T13:02:05;12.40;;;3.20;;
830;SDS011;397;50.564;7.272;2022-08-21T13:03:59;5.93;;;2.10;;
830;SDS011;397;50.564;7.272;2022-08-21T13:06:37;3.93;;;2.80;;
830;SDS011;397;50.564;7.272;2022-08-21T13:09:03;7.60;;;2.50;;
830;SDS011;397;50.564;7.272;2022-08-21T13:11:32;5.00;;;2.23;;
830;SDS011;397;50.564;7.272;2022-08-21T13:14:06;4.40;;;2.30;;
830;SDS011;397;50.564;7.272;2022-08-21T13:16:30;4.10;;;2.43;;
830;SDS011;397;50.564;7.272;2022-08-21T13:19:00;11.23;;;2.90;;
830;SDS011;397;50.564;7.272;2022-08-21T13:21:32;5.53;;;3.27;;
830;SDS011;397;50.564;7.272;2022-08-21T13:26:48;4.80;;;3.10;;
830;SDS011;397;50.564;7.272;2022-08-21T13:29:17;6.03;;;2.97;;
830;SDS011;397;50.564;7.272;2022-08-21T13:31:52;4.63;;;2.53;;
830;SDS011;397;50.564;7.272;2022-08-21T13:34:21;5.00;;;2.70;;
830;SDS011;397;50.564;7.272;2022-08-21T13:36:52;6.43;;;2.87;;
830;SDS011;397;50.564;7.272;2022-08-21T13:39:22;3.80;;;2.63;;
830;SDS011;397;50.564;7.272;2022-08-21T13:41:50;5.80;;;2.60;;
830;SDS011;397;50.564;7.272;2022-08-21T13:46:52;5.73;;;2.60;;
830;SDS011;397;50.564;7.272;2022-08-21T13:49:23;5.60;;;3.17;;
830;SDS011;397;50.564;7.272;2022-08-21T13:51:52;5.77;;;2.80;;
830;SDS011;397;50.564;7.272;2022-08-21T13:54:26;6.07;;;2.40;;
830;SDS011;397;50.564;7.272;2022-08-21T13:57:15;6.00;;;2.23;;
830;SDS011;397;50.564;7.272;2022-08-21T13:59:45;5.03;;;2.33;;
830;SDS011;397;50.564;7.272;2022-08-21T14:02:16;8.83;;;4.07;;
830;SDS011;397;50.564;7.272;2022-08-21T14:04:56;5.10;;;2.77;;
830;SDS011;397;50.564;7.272;2022-08-21T14:07:34;5.50;;;2.73;;
830;SDS011;397;50.564;7.272;2022-08-21T14:10:13;6.73;;;2.73;;
830;SDS011;397;50.564;7.272;2022-08-21T14:12:43;6.03;;;2.53;;
830;SDS011;397;50.564;7.272;2022-08-21T14:15:16;5.40;;;2.07;;
830;SDS011;397;50.564;7.272;2022-08-21T14:17:46;4.03;;;2.70;;
830;SDS011;397;50.564;7.272;2022-08-21T14:20:33;3.73;;;2.10;;
830;SDS011;397;50.564;7.272;2022-08-21T14:23:02;6.30;;;2.77;;
830;SDS011;397;50.564;7.272;2022-08-21T14:25:41;4.77;;;2.70;;
830;SDS011;397;50.564;7.272;2022-08-21T14:30:41;5.30;;;2.80;;
830;SDS011;397;50.564;7.272;2022-08-21T14:33:11;5.07;;;2.87;;
830;SDS011;397;50.564;7.272;2022-08-21T14:35:41;5.97;;;2.37;;
830;SDS011;397;50.564;7.272;2022-08-21T14:38:12;5.20;;;2.73;;
830;SDS011;397;50.564;7.272;2022-08-21T14:40:42;3.97;;;2.50;;
830;SDS011;397;50.564;7.272;2022-08-21T14:43:11;6.40;;;2.43;;
830;SDS011;397;50.564;7.272;2022-08-21T14:45:39;5.47;;;2.70;;
830;SDS011;397;50.564;7.272;2022-08-21T14:48:06;5.13;;;2.30;;
830;SDS011;397;50.564;7.272;2022-08-21T14:50:34;4.73;;;2.50;;
830;SDS011;397;50.564;7.272;2022-08-21T14:53:03;7.73;;;3.03;;
830;SDS011;397;50.564;7.272;2022-08-21T14:55:31;6.20;;;2.60;;
830;SDS011;397;50.564;7.272;2022-08-21T14:58:03;4.90;;;2.60;;
830;SDS011;397;50.564;7.272;2022-08-21T15:00:31;5.20;;;2.63;;
830;SDS011;397;50.564;7.272;2022-08-21T15:02:58;6.73;;;2.40;;
830;SDS011;397;50.564;7.272;2022-08-21T15:05:26;4.53;;;2.13;;
830;SDS011;397;50.564;7.272;2022-08-21T15:07:53;4.00;;;2.40;;
830;SDS011;397;50.564;7.272;2022-08-21T15:10:21;4.83;;;2.20;;
830;SDS011;397;50.564;7.272;2022-08-21T15:12:48;4.73;;;2.37;;
830;SDS011;397;50.564;7.272;2022-08-21T15:15:16;8.90;;;2.67;;
830;SDS011;397;50.564;7.272;2022-08-21T15:17:43;3.60;;;1.60;;
830;SDS011;397;50.564;7.272;2022-08-21T15:20:11;5.07;;;2.40;;
830;SDS011;397;50.564;7.272;2022-08-21T15:22:39;6.60;;;2.90;;
830;SDS011;397;50.564;7.272;2022-08-21T15:25:07;5.07;;;2.87;;
830;SDS011;397;50.564;7.272;2022-08-21T15:27:35;4.50;;;2.20;;
830;SDS011;397;50.564;7.272;2022-08-21T15:30:03;4.87;;;2.70;;
830;SDS011;397;50.564;7.272;2022-08-21T15:32:31;5.10;;;2.80;;
830;SDS011;397;50.564;7.272;2022-08-21T15:34:59;4.07;;;2.20;;
830;SDS011;397;50.564;7.272;2022-08-21T15:37:27;7.07;;;3.03;;
830;SDS011;397;50.564;7.272;2022-08-21T15:39:55;7.00;;;3.27;;
830;SDS011;397;50.564;7.272;2022-08-21T15:42:22;5.40;;;2.73;;
830;SDS011;397;50.564;7.272;2022-08-21T15:44:53;4.93;;;2.77;;
830;SDS011;397;50.564;7.272;2022-08-21T15:47:22;5.93;;;3.30;;
830;SDS011;397;50.564;7.272;2022-08-21T15:49:55;4.70;;;2.50;;
830;SDS011;397;50.564;7.272;2022-08-21T15:52:23;5.63;;;2.40;;
830;SDS011;397;50.564;7.272;2022-08-21T15:54:50;7.43;;;2.30;;
830;SDS011;397;50.564;7.272;2022-08-21T15:57:19;4.23;;;2.27;;
830;SDS011;397;50.564;7.272;2022-08-21T15:59:56;5.00;;;2.40;;
830;SDS011;397;50.564;7.272;2022-08-21T16:02:27;5.40;;;2.60;;
830;SDS011;397;50.564;7.272;2022-08-21T16:04:56;7.00;;;2.83;;
830;SDS011;397;50.564;7.272;2022-08-21T16:07:24;4.23;;;1.97;;
830;SDS011;397;50.564;7.272;2022-08-21T16:09:52;3.67;;;2.20;;
830;SDS011;397;50.564;7.272;2022-08-21T16:12:21;4.87;;;2.30;;
830;SDS011;397;50.564;7.272;2022-08-21T16:14:51;3.37;;;1.87;;
830;SDS011;397;50.564;7.272;2022-08-21T16:17:21;6.60;;;2.57;;
830;SDS011;397;50.564;7.272;2022-08-21T16:19:50;5.57;;;2.07;;
830;SDS011;397;50.564;7.272;2022-08-21T16:22:17;5.23;;;2.70;;
830;SDS011;397;50.564;7.272;2022-08-21T16:24:45;4.17;;;1.97;;
830;SDS011;397;50.564;7.272;2022-08-21T16:27:12;9.23;;;2.30;;
830;SDS011;397;50.564;7.272;2022-08-21T16:29:42;4.20;;;2.20;;
830;SDS011;397;50.564;7.272;2022-08-21T16:32:09;6.50;;;2.33;;
830;SDS011;397;50.564;7.272;2022-08-21T16:34:39;5.17;;;2.80;;
830;SDS011;397;50.564;7.272;2022-08-21T16:37:08;5.00;;;2.20;;
830;SDS011;397;50.564;7.272;2022-08-21T16:39:36;6.00;;;2.93;;
830;SDS011;397;50.564;7.272;2022-08-21T16:42:03;5.80;;;3.37;;
830;SDS011;397;50.564;7.272;2022-08-21T16:44:31;7.83;;;2.77;;
830;SDS011;397;50.564;7.272;2022-08-21T16:47:00;5.10;;;2.53;;
830;SDS011;397;50.564;7.272;2022-08-21T16:49:28;4.20;;;2.23;;
830;SDS011;397;50.564;7.272;2022-08-21T16:51:57;6.43;;;3.00;;
830;SDS011;397;50.564;7.272;2022-08-21T16:54:25;5.50;;;2.60;;
830;SDS011;397;50.564;7.272;2022-08-21T16:56:52;4.33;;;2.30;;
830;SDS011;397;50.564;7.272;2022-08-21T16:59:20;8.70;;;2.73;;
830;SDS011;397;50.564;7.272;2022-08-21T17:01:47;5.60;;;2.33;;
830;SDS011;397;50.564;7.272;2022-08-21T17:04:15;9.23;;;2.87;;
830;SDS011;397;50.564;7.272;2022-08-21T17:06:43;4.40;;;2.17;;
830;SDS011;397;50.564;7.272;2022-08-21T17:09:10;3.50;;;1.87;;
830;SDS011;397;50.564;7.272;2022-08-21T17:11:44;6.20;;;2.20;;
830;SDS011;397;50.564;7.272;2022-08-21T17:14:12;5.97;;;2.00;;